ETEB 261156Z AUTO 00000KT 9999 CLR 32/19 A3026 RMK AO2 SLP230 T03200189 10326 20241 58003 $ EDMA 261220Z VRB02KT CAVOK 33/19 Q1024 ETIK 261156Z AUTO 32005KT 9999 CLR 33/20 A3024 RMK AO2 SLP225 T03300198 10330 20217 58003 EDDT 261220Z 29012KT 260V330 CAVOK 36/16 Q1018 TEMPO 29015G25KT LSZB 261220Z 26003KT 200V320 CAVOK 34/19 Q1024 NOSIG LIPB 261150Z 16008KT CAVOK 34/19 Q1021 RMK MON LIB EDVE 261220Z 29011KT 260V320 CAVOK 34/18 Q1021 EDDW 261220Z 31014KT 9999 FEW040 26/16 Q1023 BECMG 29015G25KT LFMD 261200Z AUTO 18005KT 140V220 CAVOK 32/20 Q1022 NOSIG EDLW 261220Z 31007KT 210V010 CAVOK 30/21 Q1024 EDDC 261220Z 26010KT 220V310 CAVOK 35/15 Q1021 NOSIG EDDL 261220Z 31009KT 260V340 9000 NSC 28/19 Q1024 NOSIG EDDE 261220Z 28009KT 240V330 CAVOK 33/18 Q1023 NOSIG LIRQ 261220Z 01011KT CAVOK 35/19 Q1021 EDDF 261220Z VRB05KT CAVOK 36/18 Q1022 NOSIG EDNY 261220Z 22003KT 100V270 CAVOK 31/22 Q1024 ETHF 261220Z 24004KT 9999 FEW060 34/19 Q1022 BLU+BLU+ LIMJ 261220Z 14005KT 100V170 CAVOK 30/22 Q1021 ETIC 261156Z AUTO 20003KT 9999 CLR 34/15 A3022 RMK AO2 SLP212 T03410150 10344 20201 57009 $ LOWG 261220Z 17006KT 130V250 CAVOK 30/18 Q1024 NOSIG EDDH 261220Z 28013KT 240V320 9999 FEW032 25/18 Q1022 BECMG 29015G25KT EDDV 261220Z 28014KT 230V320 CAVOK 33/19 Q1021 TEMPO 29015G25KT EDQM 261220Z 24008KT 200V270 CAVOK 34/14 Q1025 ETIH 261156Z AUTO 26005KT 9999 CLR 34/22 A3025 RMK AO2 SLP222 T03370215 10337 20215 58007 ETSI 261220Z 15003KT 9999 FEW170 34/18 Q1023 BLU+BLU+ LOWI 261220Z 05005KT 010V090 CAVOK 34/14 Q1024 NOSIG EDVK 261220Z 30009KT 270V330 CAVOK 30/20 Q1023 EDHK 261220Z 28014KT CAVOK 27/19 Q1020 LOWK 261220Z 08004KT 020V160 9999 FEW050 31/17 Q1025 NOSIG EDDK 261220Z 29008KT 250V340 CAVOK 32/17 Q1023 NOSIG EDDP 261220Z 28009KT 250V320 CAVOK 36/18 Q1020 NOSIG LOWL 261220Z 31005KT 250V360 9999 FEW060 32/18 Q1023 NOSIG LSZA 261220Z 19005KT CAVOK 33/22 Q1023 NOSIG EDHL 261220Z 27010KT 230V310 9999 FEW040 29/19 Q1020 LIML 261220Z VRB05KT CAVOK 34/20 Q1022 NOSIG LFML 261200Z AUTO 18008KT 140V220 CAVOK 37/16 Q1021 NOSIG LFMT 261200Z AUTO 15004KT 110V180 CAVOK 33/19 Q1021 NOSIG EDLN 261220Z 32007KT 250V360 4300 HZ NSC 27/20 Q1024 EDDM 261220Z 09005KT 030V130 CAVOK 32/18 Q1025 NOSIG EDDG 261220Z 30008KT 260V350 9999 FEW027 29/19 Q1023 NOSIG ETSN 261220Z VRB03KT 9999 FEW170 33/18 Q1024 BLU+BLU+ ETHN 261220Z 01004KT 9999 FEW048 32/19 Q1024 BLU+BLU+ LFMN 261200Z 15003KT CAVOK 30/22 Q1022 NOSIG EDDN 261220Z VRB05KT CAVOK 36/17 Q1023 NOSIG EDMO 261220Z 01005KT 350V110 CAVOK 32/17 Q1025 EDLP 261220Z 29010KT 250V340 CAVOK 32/17 Q1024 LIPR 261220Z 05007KT 010V080 CAVOK 29/22 Q1022 EDDR 261220Z VRB04KT CAVOK 34/16 Q1024 NOSIG LOWS 261220Z 30007KT 280V010 CAVOK 32/21 Q1024 NOSIG LSGS 261220Z 24006KT 200V270 CAVOK 33/13 Q1023 EDDS 261220Z VRB03KT CAVOK 34/18 Q1024 NOSIG LFTH 261200Z AUTO 11010KT CAVOK 33/16 Q1021 NOSIG LIVT 261155Z 05004KT CAVOK 35/20 Q1021 RMK SKC QUK 2 QUL 1 NE VIS MAR 20 KM VIS MIN 9999 LIMF 261220Z VRB03KT CAVOK 33/22 Q1023 LIPI 261155Z /////KT CAVOK 36/17 Q1022 RMK SKC VIS MIN 9999 WIND THR06 11004KT WIND THR24 13004KT BLU LIPZ 261220Z 17005KT 140V210 CAVOK 33/21 Q1022 NOSIG LIPX 261220Z VRB02KT CAVOK 35/19 Q1022 EDXW 261220Z 32018KT 9999 OVC009 17/16 Q1023 LOWW 261220Z 18008KT 140V240 CAVOK 34/17 Q1022 NOSIG LSZH 261220Z 33003KT 280V050 CAVOK 33/21 Q1024 NOSIG

METAR Messwerte

Klicken Sie auf einen Ort, um die 36h-Historie abzurufen

Ort
m ü. NN
Zeit Temperatur Taupunkt Rel.
Luftfeuchte
Luftdruck:
Altimeter
NN
Station
Wind in Beaufort
(Knoten)
Sichtweite
(Meter)
Wolken
(Meter über Grund)
Wettererscheinung
Ansbach
467
Mi 26.06. 13:56321946 %1025
1022
970
Windstill>= 10000  
Augsburg
463
Mi 26.06. 14:20331944 %1024
1021
969
Uml 1 (2)>= 10000Nicht signifikant 
Bad Windsheim / Illesheim
325
Mi 26.06. 13:56332046 %1024
1022
985
NW 2 (5)>= 10000  
Berlin-Tegel
37
Mi 26.06. 14:20361631 %1018
1018
1014
WNW 4 (12)
W - NNW
Bald möglich:
WNW 4 (15) - 6 (25)
>= 10000Nicht signifikant 
Bern/Belp
505
Mi 26.06. 14:20341941 %1024
1020
964
W 2 (3)
SSW - NW
>= 10000Nicht signifikant 
Bozen
241
Mi 26.06. 13:50341941 %1021
1019
992
SSO 3 (8)>= 10000Nicht signifikant 
Braunschweig
88
Mi 26.06. 14:20341839 %1021
1020
1010
WNW 4 (11)
W - NW
>= 10000Nicht signifikant 
Bremen
5
Mi 26.06. 14:20261654 %1023
1023
1022
NW 4 (14)
Bald Übergang zu:
WNW 4 (15) - 6 (25)
>= 10000Leicht bewölkt (1200) 
Cannes
9
Mi 26.06. 14:00322049 %1022
1022
1021
S 2 (5)
SO - SW
>= 10000Nicht signifikant 
Dortmund/Wickede
127
Mi 26.06. 14:20302159 %1024
1023
1009
NW 3 (7)
SSW - N
>= 10000Nicht signifikant 
Dresden-Klotzsche
226
Mi 26.06. 14:20351530 %1021
1019
994
W 3 (10)
SW - NW
>= 10000Nicht signifikant 
Düsseldorf
44
Mi 26.06. 14:20281958 %1024
1024
1019
NW 3 (9)
W - NNW
9000Nicht signifikant 
Erfurt-Bindersleben
323
Mi 26.06. 14:20331841 %1023
1021
984
W 3 (9)
WSW - NNW
>= 10000Nicht signifikant 
Florenz
38
Mi 26.06. 14:20351939 %1021
1021
1016
N 4 (11)>= 10000Nicht signifikant 
Frankfurt
113
Mi 26.06. 14:20361835 %1022
1021
1008
Uml 2 (5)>= 10000Nicht signifikant 
Friedrichshafen
424
Mi 26.06. 14:20312259 %1024
1021
974
SW 2 (3)
O - W
>= 10000Nicht signifikant 
Fritzlar
181
Mi 26.06. 14:20341941 %1022
1021
1000
WSW 2 (4)>= 10000Leicht bewölkt (1800) 
Genua
3
Mi 26.06. 14:20302262 %1021
1021
1021
SO 2 (5)
O - S
>= 10000Nicht signifikant 
Grafenwöhr
415
Mi 26.06. 13:56341532 %1023
1020
974
SSW 2 (3)>= 10000  
Graz-Thalerhof
347
Mi 26.06. 14:20301849 %1024
1022
983
S 2 (6)
SO - WSW
>= 10000Nicht signifikant 
Hamburg-Fuhlsbüttel
16
Mi 26.06. 14:20251865 %1022
1022
1020
W 4 (13)
WSW - NW
Bald Übergang zu:
WNW 4 (15) - 6 (25)
>= 10000Leicht bewölkt (980) 
Hannover
54
Mi 26.06. 14:20331944 %1021
1021
1014
W 4 (14)
SW - NW
Bald möglich:
WNW 4 (15) - 6 (25)
>= 10000Nicht signifikant 
Hof
568
Mi 26.06. 14:20341430 %1025
1021
958
WSW 3 (8)
SSW - W
>= 10000Nicht signifikant 
Hohenfels
442
Mi 26.06. 13:56342250 %1024
1021
972
W 2 (5)>= 10000  
Ingolstadt
370
Mi 26.06. 14:20341839 %1023
1020
979
SSO 2 (3)>= 10000Leicht bewölkt (5200) 
Innsbruck
581
Mi 26.06. 14:20341430 %1024
1020
956
NO 2 (5)
N - O
>= 10000Nicht signifikant 
Kassel/Calden
285
Mi 26.06. 14:20302055 %1023
1021
989
WNW 3 (9)
W - NNW
>= 10000Nicht signifikant 
Kiel
31
Mi 26.06. 14:20271962 %1020
1020
1016
W 4 (14)>= 10000Nicht signifikant 
Klagenfurt
441
Mi 26.06. 14:20311743 %1025
1022
973
O 2 (4)
NNO - SSO
>= 10000Leicht bewölkt (1500) 
Köln/Bonn
99
Mi 26.06. 14:20321741 %1023
1022
1011
WNW 3 (8)
WSW - NNW
>= 10000Nicht signifikant 
Leipzig-Schkeuditz
149
Mi 26.06. 14:20361835 %1020
1019
1002
W 3 (9)
WSW - NW
>= 10000Nicht signifikant 
Linz/Hörsching
313
Mi 26.06. 14:20321843 %1023
1021
986
NW 2 (5)
WSW - N
>= 10000Leicht bewölkt (1800) 
Lugano
276
Mi 26.06. 14:20332253 %1023
1021
990
S 2 (5)>= 10000Nicht signifikant 
Lübeck-Blankensee
16
Mi 26.06. 14:20291955 %1020
1020
1018
W 3 (10)
SW - NW
>= 10000Leicht bewölkt (1200) 
Mailand
103
Mi 26.06. 14:20342044 %1022
1021
1010
Uml 2 (5)>= 10000Nicht signifikant 
Marseille/Marignane
36
Mi 26.06. 14:00371629 %1021
1021
1017
S 3 (8)
SO - SW
>= 10000Nicht signifikant 
Montpellier
6
Mi 26.06. 14:00331944 %1021
1021
1020
SSO 2 (4)
OSO - S
>= 10000Nicht signifikant 
Mönchengladbach
38
Mi 26.06. 14:20272066 %1024
1024
1019
NW 3 (7)
WSW - N
4300Nicht signifikantDunst
München
447
Mi 26.06. 14:20321843 %1025
1022
972
O 2 (5)
NNO - SO
>= 10000Nicht signifikant 
Münster/Osnabrück
52
Mi 26.06. 14:20291955 %1023
1023
1017
WNW 3 (8)
W - N
>= 10000Leicht bewölkt (820) 
Neuburg/Donau
387
Mi 26.06. 14:20331841 %1024
1021
978
Uml 2 (3)>= 10000Leicht bewölkt (5200) 
Niederstetten
473
Mi 26.06. 14:20321946 %1024
1021
968
N 2 (4)>= 10000Leicht bewölkt (1500) 
Nizza
10
Mi 26.06. 14:00302262 %1022
1022
1021
SSO 2 (3)>= 10000Nicht signifikant 
Nürnberg
312
Mi 26.06. 14:20361733 %1023
1020
986
Uml 2 (5)>= 10000Nicht signifikant 
Oberpfaffenhofen
600
Mi 26.06. 14:20321741 %1025
1021
954
N 2 (5)
N - OSO
>= 10000Nicht signifikant 
Paderborn/Lippstadt
213
Mi 26.06. 14:20321741 %1024
1023
998
WNW 3 (10)
WSW - NNW
>= 10000Nicht signifikant 
Rimini
13
Mi 26.06. 14:20292266 %1022
1022
1020
NO 3 (7)
N - O
>= 10000Nicht signifikant 
Saarbrücken/Ensheim
320
Mi 26.06. 14:20341634 %1024
1022
986
Uml 2 (4)>= 10000Nicht signifikant 
Salzburg
450
Mi 26.06. 14:20322152 %1024
1021
971
WNW 3 (7)
W - N
>= 10000Nicht signifikant 
Sion
481
Mi 26.06. 14:20331330 %1023
1020
966
WSW 2 (6)
SSW - W
>= 10000Nicht signifikant 
Stuttgart
419
Mi 26.06. 14:20341839 %1024
1021
974
Uml 2 (3)>= 10000Nicht signifikant 
Toulon
4
Mi 26.06. 14:00331636 %1021
1021
1021
OSO 3 (10)>= 10000Nicht signifikant 
Triest
20
Mi 26.06. 13:55352042 %1021
1021
1019
NO 2 (4)>= 10000Nicht signifikant 
Turin
287
Mi 26.06. 14:20332253 %1023
1021
989
Uml 2 (3)>= 10000Nicht signifikant 
Udine/Rivolto
53
Mi 26.06. 13:55361733 %1022
1022
1016
OSO 2 (4)>= 10000Nicht signifikant 
Venedig
6
Mi 26.06. 14:20332149 %1022
1022
1021
S 2 (5)
SO - SSW
>= 10000Nicht signifikant 
Verona/Villafranca
68
Mi 26.06. 14:20351939 %1022
1021
1014
Uml 1 (2)>= 10000Nicht signifikant 
Westerland/Sylt
20
Mi 26.06. 14:20171694 %1023
1023
1021
NW 5 (18)>= 10000Bedeckt (270) 
Wien/Schwechat
190
Mi 26.06. 14:20341736 %1022
1021
999
S 3 (8)
SO - WSW
>= 10000Nicht signifikant 
Zürich-Kloten
432
Mi 26.06. 14:20332149 %1024
1021
973
NNW 2 (3)
W - NO
>= 10000Nicht signifikant 

Altimeter: Einstellung am Altimeter (Höhenmesser), die Höhe 0 muss auf diesen Luftdruckwert zeigen, damit das Gerät die Stationshöhe richtig anzeigt.

NN: Luftdruck reduziert auf "Normal Null", auf Meereshöhe, dieser von der Temperatur abhängige Wert wird bisweilen unkorrekt einfach als "Luftdruck" bezeichnet. Eigentlich nur eine fiktive Größe, die es erlaubt, Stationen auf unterschiedlichen Höhen miteinander zu vergleichen.

Station: Realer Luftdruck an der Station.